Time;durP1;ratioP1;P1;durP2;ratioP2;P2;SDS_P1;SDS_P2;PMS_P1;PMS_P2;Temp;Humidity;BMP_temperature;BMP_pressure;BME280_temperature;BME280_humidity;BME280_pressure;Samples;Min_cycle;Max_cycle;Signal;HPM_P1;HPM_P2
2021/09/26 00:00:39;;;;;;;;;19.00;17.33;;;;;;;;5095442;27;45509;-87
2021/09/26 00:03:04;;;;;;;;;17.00;15.33;;;;;;;;5106130;27;45577;-87
2021/09/26 00:05:30;;;;;;;;;22.33;20.67;;;;;;;;5098002;27;45307;-86
2021/09/26 00:07:55;;;;;;;;;23.67;17.00;;;;;;;;5095290;27;46059;-86
2021/09/26 00:10:20;;;;;;;;;22.00;19.33;;;;;;;;5096492;27;45742;-86
2021/09/26 00:12:45;;;;;;;;;21.67;15.67;;;;;;;;5096233;27;45563;-87
2021/09/26 00:15:13;;;;;;;;;20.75;18.00;;;;;;;;5093758;27;45489;-87
2021/09/26 00:17:38;;;;;;;;;19.25;17.00;;;;;;;;5093847;27;46044;-87
2021/09/26 00:20:04;;;;;;;;;18.00;16.00;;;;;;;;5094853;27;45509;-87
2021/09/26 00:22:29;;;;;;;;;17.25;16.00;;;;;;;;5097247;27;45602;-87
2021/09/26 00:24:54;;;;;;;;;16.33;16.33;;;;;;;;5094337;27;45736;-87
2021/09/26 00:27:19;;;;;;;;;19.67;16.00;;;;;;;;5096205;27;45463;-87
2021/09/26 00:29:45;;;;;;;;;18.00;14.67;;;;;;;;5091832;27;46070;-87
2021/09/26 00:32:10;;;;;;;;;19.67;14.67;;;;;;;;5091796;27;45439;-87
2021/09/26 00:34:35;;;;;;;;;14.25;13.25;;;;;;;;5091682;27;46066;-87
2021/09/26 00:37:01;;;;;;;;;17.67;14.33;;;;;;;;5103392;27;48095;-87
2021/09/26 00:39:26;;;;;;;;;17.50;14.50;;;;;;;;5104134;27;45678;-87
2021/09/26 00:41:51;;;;;;;;;17.00;14.50;;;;;;;;5093212;27;45516;-87
2021/09/26 00:44:17;;;;;;;;;15.50;14.75;;;;;;;;5091207;27;45924;-87
2021/09/26 00:46:42;;;;;;;;;16.00;14.00;;;;;;;;5096329;27;45885;-87
2021/09/26 00:49:07;;;;;;;;;16.67;15.33;;;;;;;;5086046;27;45437;-87
2021/09/26 00:51:32;;;;;;;;;15.67;13.33;;;;;;;;5094247;27;45352;-87
2021/09/26 00:53:58;;;;;;;;;8.33;8.00;;;;;;;;5092769;27;46111;-86
2021/09/26 00:56:24;;;;;;;;;18.25;14.25;;;;;;;;5090544;27;45397;-87
2021/09/26 00:58:49;;;;;;;;;15.25;13.00;;;;;;;;5096417;27;45394;-87
2021/09/26 01:01:15;;;;;;;;;16.00;14.33;;;;;;;;5104083;27;45415;-87
2021/09/26 01:03:40;;;;;;;;;14.50;14.50;;;;;;;;5093495;27;46099;-87
2021/09/26 01:06:22;;;;;;;;;13.75;12.75;;;;;;;;5091137;27;45611;-87
2021/09/26 01:08:47;;;;;;;;;15.50;14.00;;;;;;;;5080749;27;45476;-87
2021/09/26 01:11:24;;;;;;;;;13.33;12.33;;;;;;;;5091390;27;45423;-87
2021/09/26 01:14:03;;;;;;;;;18.75;13.25;;;;;;;;5098333;27;45398;-87
2021/09/26 01:16:35;;;;;;;;;14.00;12.25;;;;;;;;5093389;27;45552;-87
2021/09/26 01:19:12;;;;;;;;;13.00;11.75;;;;;;;;5092341;27;45671;-87
2021/09/26 01:21:43;;;;;;;;;17.00;12.25;;;;;;;;5095190;27;45478;-87
2021/09/26 01:24:12;;;;;;;;;15.50;15.00;;;;;;;;5094212;27;46417;-86
2021/09/26 01:26:42;;;;;;;;;15.25;13.00;;;;;;;;5091383;27;45371;-87
2021/09/26 01:29:29;;;;;;;;;14.50;13.50;;;;;;;;5094388;27;45396;-87
2021/09/26 01:31:58;;;;;;;;;15.25;12.25;;;;;;;;5094350;27;45490;-87
2021/09/26 01:34:29;;;;;;;;;15.25;11.50;;;;;;;;5095929;27;46295;-87
2021/09/26 01:36:57;;;;;;;;;13.25;11.50;;;;;;;;5095382;27;45485;-87
2021/09/26 01:39:23;;;;;;;;;15.75;13.00;;;;;;;;5098252;27;45584;-87
2021/09/26 01:41:52;;;;;;;;;17.00;13.25;;;;;;;;5097415;27;45518;-88
2021/09/26 01:44:38;;;;;;;;;15.75;12.25;;;;;;;;5095575;27;45586;-87
2021/09/26 01:47:04;;;;;;;;;13.25;9.75;;;;;;;;5096226;27;45912;-87
2021/09/26 01:49:33;;;;;;;;;15.75;14.25;;;;;;;;5098801;27;45499;-87
2021/09/26 01:51:59;;;;;;;;;15.50;11.50;;;;;;;;5096993;27;45580;-86
2021/09/26 01:54:25;;;;;;;;;12.50;11.25;;;;;;;;5099870;27;45579;-87
2021/09/26 01:56:50;;;;;;;;;16.50;12.50;;;;;;;;5095395;27;45833;-87
2021/09/26 01:59:19;;;;;;;;;17.00;13.25;;;;;;;;5096950;27;45535;-87
2021/09/26 02:01:44;;;;;;;;;13.75;13.75;;;;;;;;5100053;27;45480;-87
2021/09/26 02:04:11;;;;;;;;;12.75;12.50;;;;;;;;5098414;27;47192;-87
2021/09/26 02:06:37;;;;;;;;;11.00;11.00;;;;;;;;5098639;27;45707;-87
2021/09/26 02:09:03;;;;;;;;;13.00;11.75;;;;;;;;5095751;27;45448;-87
2021/09/26 02:11:29;;;;;;;;;13.25;10.00;;;;;;;;5092248;27;45360;-87
2021/09/26 02:13:55;;;;;;;;;15.00;14.00;;;;;;;;5098542;27;45429;-87
2021/09/26 02:16:21;;;;;;;;;13.25;11.75;;;;;;;;5096365;27;45979;-87
2021/09/26 02:18:46;;;;;;;;;15.00;11.00;;;;;;;;5097646;27;45489;-87
2021/09/26 02:21:13;;;;;;;;;13.50;11.75;;;;;;;;5096954;27;45561;-86
2021/09/26 02:23:38;;;;;;;;;11.75;11.75;;;;;;;;5096114;27;46426;-87
2021/09/26 02:26:04;;;;;;;;;11.75;10.50;;;;;;;;5095834;27;45377;-87
2021/09/26 02:28:30;;;;;;;;;17.50;12.75;;;;;;;;5093961;27;45448;-87
2021/09/26 02:30:55;;;;;;;;;11.25;11.25;;;;;;;;5093450;27;45360;-87
2021/09/26 02:33:21;;;;;;;;;12.00;12.00;;;;;;;;5096841;27;46102;-87
2021/09/26 02:35:46;;;;;;;;;18.00;13.00;;;;;;;;5096427;27;45442;-87
2021/09/26 02:38:11;;;;;;;;;11.00;11.00;;;;;;;;5095735;27;46041;-87
2021/09/26 02:40:36;;;;;;;;;16.25;12.75;;;;;;;;5098562;27;45292;-87
2021/09/26 02:43:20;;;;;;;;;11.25;11.25;;;;;;;;5095730;27;45310;-86
2021/09/26 02:45:48;;;;;;;;;12.00;11.50;;;;;;;;5096122;27;45909;-87
2021/09/26 02:48:28;;;;;;;;;14.00;12.50;;;;;;;;5095958;27;45583;-87
2021/09/26 02:50:54;;;;;;;;;14.00;12.25;;;;;;;;5096518;27;45469;-86
2021/09/26 02:53:19;;;;;;;;;14.50;12.75;;;;;;;;5093822;27;46106;-86
2021/09/26 02:55:47;;;;;;;;;14.00;11.50;;;;;;;;5097349;27;45413;-87
2021/09/26 02:58:12;;;;;;;;;12.00;11.50;;;;;;;;5096622;27;45541;-87
2021/09/26 03:00:39;;;;;;;;;15.00;15.00;;;;;;;;5097894;27;45413;-86
2021/09/26 03:03:08;;;;;;;;;17.00;12.50;;;;;;;;5084889;27;45500;-87
2021/09/26 03:05:34;;;;;;;;;15.75;14.25;;;;;;;;5094590;27;45553;-87
2021/09/26 03:07:59;;;;;;;;;16.00;13.50;;;;;;;;5098239;27;45356;-87
2021/09/26 03:10:24;;;;;;;;;13.33;11.67;;;;;;;;5098344;27;45378;-87
2021/09/26 03:12:49;;;;;;;;;13.33;11.00;;;;;;;;5095023;27;45864;-86
2021/09/26 03:15:14;;;;;;;;;14.67;12.33;;;;;;;;5095462;27;45820;-86
2021/09/26 03:17:40;;;;;;;;;16.33;12.33;;;;;;;;5094401;27;45516;-86
2021/09/26 03:20:05;;;;;;;;;14.00;11.33;;;;;;;;5095045;27;45428;-86
2021/09/26 03:22:30;;;;;;;;;18.00;12.50;;;;;;;;5095698;27;48554;-86
2021/09/26 03:24:55;;;;;;;;;17.33;15.33;;;;;;;;5105995;27;45561;-86
2021/09/26 03:27:21;;;;;;;;;15.33;12.00;;;;;;;;5092117;27;45414;-86
2021/09/26 03:29:46;;;;;;;;;14.00;11.67;;;;;;;;5095057;27;45343;-86
2021/09/26 03:32:11;;;;;;;;;17.25;15.00;;;;;;;;5094235;27;46581;-86
2021/09/26 03:34:37;;;;;;;;;15.67;14.00;;;;;;;;5097871;27;45521;-86
2021/09/26 03:37:02;;;;;;;;;18.00;15.25;;;;;;;;5096854;27;45417;-87
2021/09/26 03:39:28;;;;;;;;;13.50;13.50;;;;;;;;5097080;27;45540;-86
2021/09/26 03:41:53;;;;;;;;;16.33;14.33;;;;;;;;5094126;27;46208;-87
2021/09/26 03:44:18;;;;;;;;;15.00;14.33;;;;;;;;5092799;27;45667;-87
2021/09/26 03:46:43;;;;;;;;;18.33;12.67;;;;;;;;5095756;27;45970;-88
2021/09/26 03:49:08;;;;;;;;;17.00;13.33;;;;;;;;5095287;27;45496;-87
2021/09/26 03:51:34;;;;;;;;;17.67;16.00;;;;;;;;5096834;27;46041;-87
2021/09/26 03:53:59;;;;;;;;;14.33;13.33;;;;;;;;5105943;27;45960;-87
2021/09/26 03:56:24;;;;;;;;;17.33;14.00;;;;;;;;5096246;27;45432;-87
2021/09/26 03:58:49;;;;;;;;;14.75;13.00;;;;;;;;5096148;27;45350;-87
2021/09/26 04:01:15;;;;;;;;;16.33;14.00;;;;;;;;5093340;27;46160;-88
2021/09/26 04:03:40;;;;;;;;;13.00;12.33;;;;;;;;5094098;27;45378;-87
2021/09/26 04:06:09;;;;;;;;;16.67;14.33;;;;;;;;5107202;27;45475;-87
2021/09/26 04:08:35;;;;;;;;;12.50;12.50;;;;;;;;5095196;27;45415;-87
2021/09/26 04:11:00;;;;;;;;;17.25;15.00;;;;;;;;5098408;27;46478;-87
2021/09/26 04:13:25;;;;;;;;;16.33;15.00;;;;;;;;5096362;27;45360;-86
2021/09/26 04:15:50;;;;;;;;;18.00;14.33;;;;;;;;5097605;27;45516;-87
2021/09/26 04:18:16;;;;;;;;;16.33;14.00;;;;;;;;5098024;27;45513;-86
2021/09/26 04:20:41;;;;;;;;;17.33;16.67;;;;;;;;5094425;27;45351;-87
2021/09/26 04:23:06;;;;;;;;;21.67;15.67;;;;;;;;5096273;27;45403;-86
2021/09/26 04:25:31;;;;;;;;;17.67;14.33;;;;;;;;5097075;27;45544;-87
2021/09/26 04:27:58;;;;;;;;;18.33;13.00;;;;;;;;5096858;27;49363;-87
2021/09/26 04:30:24;;;;;;;;;14.25;13.00;;;;;;;;5093267;27;46682;-87
2021/09/26 04:32:49;;;;;;;;;21.67;15.67;;;;;;;;5093026;27;45624;-89
2021/09/26 04:35:15;;;;;;;;;16.25;15.00;;;;;;;;5091871;27;45462;-89
2021/09/26 04:37:40;;;;;;;;;16.00;15.75;;;;;;;;5095717;27;45800;-89
2021/09/26 04:40:06;;;;;;;;;16.50;15.75;;;;;;;;5094923;27;46463;-89
2021/09/26 04:42:31;;;;;;;;;19.75;13.25;;;;;;;;5096741;27;45506;-89
2021/09/26 04:44:57;;;;;;;;;16.75;14.25;;;;;;;;5095407;27;45675;-90
2021/09/26 04:47:22;;;;;;;;;15.00;14.25;;;;;;;;5096970;27;45346;-89
2021/09/26 04:49:47;;;;;;;;;19.00;17.67;;;;;;;;5096742;27;45421;-89
2021/09/26 04:52:12;;;;;;;;;18.67;14.67;;;;;;;;5088204;27;45312;-90
2021/09/26 04:54:39;;;;;;;;;14.33;12.33;;;;;;;;5082857;27;45474;-88
2021/09/26 04:57:04;;;;;;;;;17.25;13.50;;;;;;;;5085358;27;45449;-90
2021/09/26 04:59:29;;;;;;;;;15.25;15.25;;;;;;;;5096430;27;45543;-90
2021/09/26 05:01:54;;;;;;;;;15.00;14.33;;;;;;;;5096353;27;45442;-89
2021/09/26 05:04:20;;;;;;;;;18.67;14.00;;;;;;;;5096871;27;45394;-90
2021/09/26 05:06:45;;;;;;;;;16.33;14.00;;;;;;;;5080830;27;45356;-90
2021/09/26 05:09:10;;;;;;;;;20.33;16.33;;;;;;;;5082149;27;46392;-90
2021/09/26 05:11:35;;;;;;;;;15.33;14.33;;;;;;;;5095832;27;45403;-89
2021/09/26 05:14:01;;;;;;;;;12.00;12.00;;;;;;;;5095138;27;45401;-86
2021/09/26 05:16:26;;;;;;;;;19.33;16.00;;;;;;;;5085444;27;45442;-85
2021/09/26 05:18:52;;;;;;;;;18.00;15.25;;;;;;;;5090562;27;45569;-84
2021/09/26 05:21:17;;;;;;;;;17.00;14.67;;;;;;;;5090377;27;45372;-85
2021/09/26 05:23:42;;;;;;;;;16.00;14.67;;;;;;;;5090640;27;45281;-89
2021/09/26 05:26:08;;;;;;;;;15.33;15.00;;;;;;;;5094404;27;45541;-84
2021/09/26 05:28:33;;;;;;;;;21.25;15.75;;;;;;;;5091385;27;46240;-85
2021/09/26 05:30:59;;;;;;;;;19.75;17.50;;;;;;;;5089106;27;45446;-82
2021/09/26 05:33:25;;;;;;;;;17.25;14.25;;;;;;;;5090945;27;45856;-83
2021/09/26 05:35:51;;;;;;;;;23.50;18.75;;;;;;;;5090776;27;45401;-83
2021/09/26 05:38:16;;;;;;;;;23.25;18.25;;;;;;;;5090541;27;47267;-83
2021/09/26 05:40:41;;;;;;;;;20.33;17.67;;;;;;;;5092004;27;45643;-83
2021/09/26 05:43:06;;;;;;;;;21.33;15.67;;;;;;;;5090521;27;45410;-83
2021/09/26 05:45:31;;;;;;;;;19.67;17.33;;;;;;;;5089973;27;45545;-84
2021/09/26 05:47:57;;;;;;;;;17.33;17.00;;;;;;;;5092841;27;45509;-84
